createdAt,value
2022-12-22T00:00:25.573Z,7.57
2022-12-22T00:03:13.041Z,8.00
2022-12-22T00:06:00.207Z,5.67
2022-12-22T00:08:47.313Z,6.20
2022-12-22T00:11:34.448Z,6.65
2022-12-22T00:14:21.443Z,6.20
2022-12-22T00:17:08.432Z,6.17
2022-12-22T00:19:55.837Z,6.40
2022-12-22T00:22:44.636Z,6.03
2022-12-22T00:25:36.796Z,6.25
2022-12-22T00:28:33.048Z,5.22
2022-12-22T00:31:20.945Z,5.30
2022-12-22T00:34:08.388Z,4.65
2022-12-22T00:36:56.327Z,4.60
2022-12-22T00:39:44.523Z,4.88
2022-12-22T00:42:31.404Z,5.32
2022-12-22T00:45:18.383Z,4.75
2022-12-22T00:48:06.052Z,4.43
2022-12-22T00:50:55.887Z,4.43
2022-12-22T00:53:43.528Z,4.97
2022-12-22T00:56:30.800Z,4.38
2022-12-22T00:59:19.987Z,4.47
2022-12-22T01:02:07.869Z,3.95
2022-12-22T01:04:57.214Z,4.43
2022-12-22T01:07:46.672Z,4.60
2022-12-22T01:10:34.729Z,4.90
2022-12-22T01:13:29.706Z,4.90
2022-12-22T01:16:16.732Z,5.25
2022-12-22T01:19:04.136Z,4.93
2022-12-22T01:21:51.677Z,6.10
2022-12-22T01:24:38.667Z,6.50
2022-12-22T01:27:29.544Z,7.65
2022-12-22T01:30:16.979Z,7.53
2022-12-22T01:33:04.938Z,7.60
2022-12-22T01:35:53.959Z,7.10
2022-12-22T01:38:41.091Z,6.75
2022-12-22T01:41:34.061Z,6.78
2022-12-22T01:44:21.348Z,7.40
2022-12-22T01:47:08.727Z,7.35
2022-12-22T01:49:57.333Z,7.10
2022-12-22T01:52:51.989Z,6.80
2022-12-22T01:55:45.706Z,6.60
2022-12-22T01:59:00.622Z,6.60
2022-12-22T02:01:50.336Z,7.90
2022-12-22T02:04:40.991Z,6.63
2022-12-22T02:07:57.076Z,7.18
2022-12-22T02:10:44.559Z,6.53
2022-12-22T02:13:52.607Z,6.70
2022-12-22T02:17:11.873Z,7.13
2022-12-22T02:20:20.529Z,6.80
2022-12-22T02:23:23.598Z,6.68
2022-12-22T02:26:34.970Z,6.53
2022-12-22T02:29:24.301Z,5.80
2022-12-22T02:32:11.788Z,6.72
2022-12-22T02:34:59.753Z,6.85
2022-12-22T02:37:57.313Z,6.43
2022-12-22T02:41:04.506Z,6.25
2022-12-22T02:44:35.684Z,6.63
2022-12-22T02:47:46.764Z,6.90
2022-12-22T02:50:43.139Z,6.97
2022-12-22T02:53:33.078Z,6.90
2022-12-22T02:56:24.715Z,6.93
2022-12-22T02:59:13.407Z,7.57
2022-12-22T03:02:04.107Z,7.43
2022-12-22T03:04:51.425Z,7.25
2022-12-22T03:07:38.817Z,7.72
2022-12-22T03:10:26.933Z,7.28
2022-12-22T03:13:17.616Z,7.88
2022-12-22T03:16:04.954Z,7.67
2022-12-22T03:18:52.418Z,8.07
2022-12-22T03:21:39.487Z,7.57
2022-12-22T03:24:27.013Z,7.90
2022-12-22T03:26:56.439Z,7.90
2022-12-22T03:29:25.071Z,7.72
2022-12-22T03:31:53.943Z,7.63
2022-12-22T03:34:22.551Z,7.82
2022-12-22T03:36:51.532Z,8.45
2022-12-22T03:39:20.336Z,8.32
2022-12-22T03:42:07.539Z,8.43
2022-12-22T03:44:54.694Z,8.13
2022-12-22T03:47:24.082Z,7.95
2022-12-22T03:49:52.583Z,7.45
2022-12-22T03:52:21.619Z,8.13
2022-12-22T03:54:50.311Z,8.60
2022-12-22T03:57:19.129Z,8.38
2022-12-22T03:59:47.966Z,8.77
2022-12-22T04:02:16.986Z,7.53
2022-12-22T04:04:45.847Z,10.15
2022-12-22T04:07:14.744Z,8.82
2022-12-22T04:10:03.241Z,8.95
2022-12-22T04:12:50.493Z,8.57
2022-12-22T04:15:19.405Z,8.50
2022-12-22T04:17:48.106Z,8.75
2022-12-22T04:20:17.136Z,8.65
2022-12-22T04:22:46.245Z,8.40
2022-12-22T04:25:16.261Z,8.40
2022-12-22T04:27:45.058Z,8.75
2022-12-22T04:30:14.364Z,8.40
2022-12-22T04:32:43.697Z,8.20
2022-12-22T04:35:13.100Z,8.70
2022-12-22T04:37:41.739Z,8.68
2022-12-22T04:40:10.855Z,8.73
2022-12-22T04:42:39.850Z,9.25
2022-12-22T04:45:09.957Z,8.82
2022-12-22T04:47:38.867Z,8.75
2022-12-22T04:50:08.115Z,9.00
2022-12-22T04:52:37.116Z,9.77
2022-12-22T04:55:07.612Z,8.98
2022-12-22T04:57:40.854Z,9.85
2022-12-22T05:00:11.398Z,9.27
2022-12-22T05:02:40.725Z,9.48
2022-12-22T05:05:10.294Z,9.43
2022-12-22T05:07:39.132Z,9.43
2022-12-22T05:10:09.796Z,10.38
2022-12-22T05:12:59.108Z,9.25
2022-12-22T05:15:31.641Z,9.88
2022-12-22T05:18:02.271Z,9.82
2022-12-22T05:20:32.093Z,9.25
2022-12-22T05:23:01.093Z,9.82
2022-12-22T05:25:34.692Z,9.77
2022-12-22T05:28:04.625Z,10.60
2022-12-22T05:30:33.532Z,11.25
2022-12-22T05:33:05.431Z,11.10
2022-12-22T05:35:34.249Z,11.73
2022-12-22T05:38:02.961Z,12.65
2022-12-22T05:40:32.902Z,11.13
2022-12-22T05:43:01.702Z,10.20
2022-12-22T05:45:31.351Z,9.95
2022-12-22T05:48:00.047Z,10.68
2022-12-22T05:50:29.679Z,10.60
2022-12-22T05:53:07.256Z,11.40
2022-12-22T05:55:36.626Z,11.43
2022-12-22T05:58:05.192Z,12.00
2022-12-22T06:00:34.342Z,11.32
2022-12-22T06:03:03.201Z,11.53
2022-12-22T06:05:32.708Z,13.07
2022-12-22T06:08:01.693Z,13.15
2022-12-22T06:10:49.366Z,13.02
2022-12-22T06:13:36.661Z,10.48
2022-12-22T06:16:05.907Z,11.45
2022-12-22T06:18:34.908Z,11.00
2022-12-22T06:21:03.988Z,11.45
2022-12-22T06:23:32.617Z,10.27
2022-12-22T06:26:03.318Z,10.48
2022-12-22T06:28:32.763Z,10.85
2022-12-22T06:31:02.708Z,10.87
2022-12-22T06:33:32.059Z,10.63
2022-12-22T06:36:06.594Z,12.07
2022-12-22T06:38:36.336Z,11.50
2022-12-22T06:41:04.901Z,11.75
2022-12-22T06:43:33.906Z,11.07
2022-12-22T06:46:03.043Z,10.80
2022-12-22T06:48:31.876Z,11.80
2022-12-22T06:51:01.724Z,12.25
2022-12-22T06:53:30.605Z,12.18
2022-12-22T06:55:59.919Z,11.65
2022-12-22T06:58:29.011Z,10.93
2022-12-22T07:00:58.762Z,12.73
2022-12-22T07:03:27.809Z,11.15
2022-12-22T07:05:56.730Z,11.75
2022-12-22T07:11:11.530Z,11.82
2022-12-22T07:13:40.738Z,11.13
2022-12-22T07:16:11.630Z,10.82
2022-12-22T07:18:43.763Z,11.25
2022-12-22T07:21:14.942Z,11.93
2022-12-22T07:23:44.030Z,11.65
2022-12-22T07:26:13.766Z,11.50
2022-12-22T07:28:44.239Z,11.70
2022-12-22T07:31:13.562Z,10.82
2022-12-22T07:33:42.747Z,11.45
2022-12-22T07:36:20.032Z,12.10
2022-12-22T07:38:51.550Z,11.02
2022-12-22T07:41:39.661Z,10.80
2022-12-22T07:44:09.445Z,11.05
2022-12-22T07:46:39.787Z,11.37
2022-12-22T07:49:28.218Z,10.77
2022-12-22T07:51:59.028Z,11.13
2022-12-22T07:54:28.748Z,12.32
2022-12-22T07:56:57.860Z,12.27
2022-12-22T07:59:26.553Z,11.32
2022-12-22T08:01:55.698Z,11.57
2022-12-22T08:04:24.804Z,12.20
2022-12-22T08:06:53.380Z,12.68
2022-12-22T08:09:24.094Z,12.50
2022-12-22T08:11:53.169Z,12.77
2022-12-22T08:14:22.028Z,14.90
2022-12-22T08:16:51.349Z,15.02
2022-12-22T08:19:20.586Z,13.45
2022-12-22T08:21:52.876Z,12.40
2022-12-22T08:24:22.933Z,12.40
2022-12-22T08:26:56.975Z,13.15
2022-12-22T08:29:34.413Z,12.43
2022-12-22T08:32:03.506Z,11.02
2022-12-22T08:34:32.647Z,12.80
2022-12-22T08:37:07.022Z,13.85
2022-12-22T08:39:39.640Z,14.97
2022-12-22T08:42:12.630Z,14.05
2022-12-22T08:44:42.783Z,12.77
2022-12-22T08:47:16.617Z,13.38
2022-12-22T08:49:47.451Z,13.82
2022-12-22T08:52:18.728Z,13.68
2022-12-22T08:54:48.451Z,13.88
2022-12-22T08:57:17.336Z,14.02
2022-12-22T08:59:49.198Z,11.57
2022-12-22T09:02:18.214Z,11.83
2022-12-22T09:04:48.443Z,11.23
2022-12-22T09:07:19.355Z,12.30
2022-12-22T09:09:48.670Z,10.60
2022-12-22T09:12:18.926Z,12.00
2022-12-22T09:14:48.340Z,12.43
2022-12-22T09:17:16.912Z,11.38
2022-12-22T09:19:46.477Z,11.00
2022-12-22T09:22:15.324Z,10.68
2022-12-22T09:24:44.642Z,10.40
2022-12-22T09:27:13.843Z,11.38
2022-12-22T09:29:44.237Z,12.00
2022-12-22T09:32:13.593Z,14.40
2022-12-22T09:34:42.241Z,14.50
2022-12-22T09:37:12.225Z,18.70
2022-12-22T09:39:43.693Z,18.17
2022-12-22T09:42:21.261Z,19.13
2022-12-22T09:44:52.623Z,19.87
2022-12-22T09:47:41.094Z,19.35
2022-12-22T09:50:17.996Z,19.45
2022-12-22T09:53:07.669Z,19.10
2022-12-22T09:55:46.226Z,17.85
2022-12-22T09:58:26.500Z,19.63
2022-12-22T10:01:38.799Z,19.90
2022-12-22T10:04:31.831Z,19.25
2022-12-22T10:07:10.405Z,18.50
2022-12-22T10:09:50.051Z,19.05
2022-12-22T10:12:24.721Z,18.33
2022-12-22T10:14:56.495Z,17.92
2022-12-22T10:17:36.151Z,17.60
2022-12-22T10:20:28.779Z,17.63
2022-12-22T10:23:14.088Z,18.10
2022-12-22T10:28:52.043Z,18.65
2022-12-22T10:31:25.459Z,19.45
2022-12-22T10:33:58.172Z,18.10
2022-12-22T10:36:33.615Z,19.02
2022-12-22T10:39:04.334Z,19.10
2022-12-22T10:41:39.831Z,18.38
2022-12-22T10:44:18.299Z,18.70
2022-12-22T10:46:53.191Z,17.75
2022-12-22T10:52:33.827Z,19.40
2022-12-22T10:55:19.200Z,16.60
2022-12-22T10:57:50.605Z,17.75
2022-12-22T11:00:31.299Z,16.15
2022-12-22T11:03:02.883Z,17.15
2022-12-22T11:05:33.632Z,16.63
2022-12-22T11:08:18.236Z,16.45
2022-12-22T11:11:17.098Z,16.40
2022-12-22T11:13:58.933Z,16.40
2022-12-22T11:16:42.818Z,18.67
2022-12-22T11:19:48.903Z,18.92
2022-12-22T11:22:40.316Z,17.30
2022-12-22T11:26:05.470Z,17.52
2022-12-22T11:29:10.813Z,19.35
2022-12-22T11:31:55.546Z,24.38
2022-12-22T11:34:47.718Z,22.80
2022-12-22T11:37:41.273Z,34.10
2022-12-22T11:40:50.128Z,32.25
2022-12-22T11:43:46.598Z,25.48
2022-12-22T11:46:37.004Z,26.52
2022-12-22T11:49:20.377Z,26.50
2022-12-22T11:52:23.370Z,26.58
2022-12-22T11:54:59.142Z,21.67
2022-12-22T11:57:38.444Z,20.65
2022-12-22T12:00:19.689Z,20.05
2022-12-22T12:03:24.711Z,20.67
2022-12-22T12:06:06.797Z,19.50
2022-12-22T12:08:53.262Z,20.25
2022-12-22T12:11:29.735Z,20.65
2022-12-22T12:14:01.894Z,19.38
2022-12-22T12:17:01.117Z,18.47
2022-12-22T12:19:37.098Z,22.63
2022-12-22T12:22:12.131Z,19.25
2022-12-22T12:25:03.641Z,20.75
2022-12-22T12:27:42.367Z,22.02
2022-12-22T12:33:22.760Z,22.27
2022-12-22T12:36:07.382Z,29.65
2022-12-22T12:39:08.043Z,21.70
2022-12-22T12:42:08.678Z,19.67
2022-12-22T12:44:42.917Z,17.98
2022-12-22T12:47:31.132Z,17.63
2022-12-22T12:50:34.762Z,16.48
2022-12-22T12:53:10.322Z,16.67
2022-12-22T12:55:44.067Z,17.92
2022-12-22T12:58:34.180Z,16.85
2022-12-22T13:01:07.571Z,17.25
2022-12-22T13:06:54.594Z,18.65
2022-12-22T13:09:50.390Z,17.90
2022-12-22T13:12:36.122Z,17.90
2022-12-22T13:15:06.539Z,18.00
2022-12-22T13:17:49.485Z,18.25
2022-12-22T13:20:29.209Z,19.15
2022-12-22T13:23:02.847Z,19.55
2022-12-22T13:25:57.261Z,20.77
2022-12-22T13:28:29.624Z,22.87
2022-12-22T13:31:22.901Z,22.05
2022-12-22T13:34:46.284Z,21.90
2022-12-22T13:37:28.954Z,19.95
2022-12-22T13:40:33.132Z,21.67
2022-12-22T13:43:14.575Z,20.40
2022-12-22T13:46:07.166Z,20.10
2022-12-22T13:48:48.285Z,18.88
2022-12-22T13:51:36.760Z,19.58
2022-12-22T13:54:16.592Z,18.63
2022-12-22T13:56:48.198Z,19.10
2022-12-22T13:59:29.996Z,19.23
2022-12-22T14:02:05.657Z,19.10
2022-12-22T14:04:35.754Z,19.42
2022-12-22T14:07:23.055Z,19.70
2022-12-22T14:09:57.415Z,21.13
2022-12-22T14:12:41.289Z,20.55
2022-12-22T14:15:19.126Z,18.35
2022-12-22T14:17:53.162Z,17.93
2022-12-22T14:20:30.085Z,17.17
2022-12-22T14:23:22.649Z,15.52
2022-12-22T14:25:55.405Z,16.75
2022-12-22T14:28:31.547Z,17.02
2022-12-22T14:31:02.672Z,16.42
2022-12-22T14:33:36.158Z,18.85
2022-12-22T14:36:07.868Z,19.20
2022-12-22T14:38:51.086Z,24.48
2022-12-22T14:41:59.082Z,25.13
2022-12-22T14:44:46.353Z,30.95
2022-12-22T14:47:24.243Z,30.58
2022-12-22T14:50:15.656Z,32.90
2022-12-22T14:52:52.617Z,33.22
2022-12-22T14:55:36.843Z,23.30
2022-12-22T14:58:13.751Z,11.90
2022-12-22T15:00:49.744Z,9.00
2022-12-22T15:03:40.240Z,9.63
2022-12-22T15:06:29.264Z,11.52
2022-12-22T15:09:13.171Z,15.20
2022-12-22T15:11:48.132Z,15.90
2022-12-22T15:14:23.614Z,18.50
2022-12-22T15:17:03.898Z,19.48
2022-12-22T15:19:36.844Z,23.70
2022-12-22T15:22:09.772Z,24.55
2022-12-22T15:24:39.875Z,22.23
2022-12-22T15:27:09.575Z,21.58
2022-12-22T15:29:39.618Z,21.47
2022-12-22T15:32:16.638Z,20.88
2022-12-22T15:34:47.132Z,19.63
2022-12-22T15:37:17.385Z,19.60
2022-12-22T15:39:48.584Z,20.00
2022-12-22T15:42:19.268Z,20.20
2022-12-22T15:44:49.518Z,19.30
2022-12-22T15:47:24.607Z,16.08
2022-12-22T15:49:55.013Z,16.80
2022-12-22T15:52:28.227Z,16.30
2022-12-22T15:55:00.448Z,15.60
2022-12-22T15:57:31.383Z,15.25
2022-12-22T16:00:01.895Z,16.08
2022-12-22T16:02:33.570Z,14.35
2022-12-22T16:05:04.024Z,14.75
2022-12-22T16:07:34.631Z,15.07
2022-12-22T16:10:07.142Z,15.68
2022-12-22T16:12:38.487Z,16.52
2022-12-22T16:15:16.107Z,17.60
2022-12-22T16:17:47.522Z,17.52
2022-12-22T16:20:17.784Z,13.38
2022-12-22T16:22:47.771Z,16.40
2022-12-22T16:25:22.604Z,14.45
2022-12-22T16:27:53.444Z,12.70
2022-12-22T16:30:26.181Z,13.60
2022-12-22T16:32:57.885Z,12.80
2022-12-22T16:35:30.778Z,12.43
2022-12-22T16:38:02.319Z,14.18
2022-12-22T16:40:35.098Z,17.10
2022-12-22T16:46:02.268Z,15.32
2022-12-22T16:48:44.909Z,13.82
2022-12-22T16:51:40.491Z,14.77
2022-12-22T16:54:16.037Z,17.20
2022-12-22T16:56:53.606Z,15.57
2022-12-22T16:59:43.667Z,14.85
2022-12-22T17:02:36.940Z,12.13
2022-12-22T17:05:14.768Z,11.85
2022-12-22T17:07:46.745Z,11.47
2022-12-22T17:10:19.079Z,11.68
2022-12-22T17:12:55.218Z,11.43
2022-12-22T17:15:26.073Z,11.38
2022-12-22T17:17:57.655Z,11.45
2022-12-22T17:20:30.573Z,11.05
2022-12-22T17:23:05.375Z,11.43
2022-12-22T17:25:35.744Z,11.63
2022-12-22T17:28:06.227Z,11.80
2022-12-22T17:30:37.070Z,9.70
2022-12-22T17:33:07.209Z,10.30
2022-12-22T17:35:38.588Z,10.30
2022-12-22T17:38:23.871Z,11.63
2022-12-22T17:40:54.914Z,10.77
2022-12-22T17:43:28.046Z,10.75
2022-12-22T17:45:58.038Z,11.05
2022-12-22T17:48:27.690Z,11.43
2022-12-22T17:50:58.203Z,10.80
2022-12-22T17:53:29.160Z,11.00
2022-12-22T17:56:09.551Z,11.65
2022-12-22T17:58:39.963Z,12.23
2022-12-22T18:01:20.837Z,12.40
2022-12-22T18:03:51.199Z,22.58
2022-12-22T18:06:23.434Z,18.15
2022-12-22T18:08:55.178Z,11.18
2022-12-22T18:11:25.436Z,11.65
2022-12-22T18:13:58.262Z,10.48
2022-12-22T18:16:28.462Z,11.40
2022-12-22T18:18:57.701Z,10.63
2022-12-22T18:21:30.271Z,11.82
2022-12-22T18:24:02.067Z,11.23
2022-12-22T18:26:33.373Z,11.70
2022-12-22T18:29:05.111Z,10.27
2022-12-22T18:31:35.387Z,11.73
2022-12-22T18:34:06.637Z,11.88
2022-12-22T18:36:37.370Z,11.63
2022-12-22T18:39:11.817Z,11.15
2022-12-22T18:41:44.922Z,10.68
2022-12-22T18:44:18.876Z,10.75
2022-12-22T18:46:49.805Z,10.55
2022-12-22T18:49:19.388Z,10.07
2022-12-22T18:51:48.825Z,10.07
2022-12-22T18:54:39.229Z,10.60
2022-12-22T18:57:16.012Z,10.27
2022-12-22T18:59:46.472Z,9.88
2022-12-22T19:02:29.704Z,9.82
2022-12-22T19:04:59.555Z,9.82
2022-12-22T19:07:28.969Z,8.83
2022-12-22T19:09:58.837Z,10.30
2022-12-22T19:12:29.865Z,10.93
2022-12-22T19:15:04.902Z,9.98
2022-12-22T19:17:34.628Z,12.52
2022-12-22T19:20:03.841Z,11.88
2022-12-22T19:22:33.208Z,14.68
2022-12-22T19:25:03.148Z,10.50
2022-12-22T19:27:37.125Z,11.95
2022-12-22T19:30:07.446Z,11.30
2022-12-22T19:32:49.293Z,11.70
2022-12-22T19:35:22.140Z,11.07
2022-12-22T19:37:53.265Z,12.07
2022-12-22T19:40:29.194Z,11.32
2022-12-22T19:42:59.891Z,9.40
2022-12-22T19:45:37.251Z,9.30
2022-12-22T19:48:18.899Z,11.02
2022-12-22T19:50:49.729Z,9.48
2022-12-22T19:53:20.288Z,8.77
2022-12-22T19:55:56.673Z,9.02
2022-12-22T19:58:32.503Z,9.70
2022-12-22T20:01:02.034Z,9.82
2022-12-22T20:03:31.621Z,10.10
2022-12-22T20:06:01.066Z,10.32
2022-12-22T20:08:30.652Z,10.20
2022-12-22T20:11:01.820Z,9.83
2022-12-22T20:13:35.188Z,9.63
2022-12-22T20:16:06.236Z,9.82
2022-12-22T20:18:36.137Z,10.63
2022-12-22T20:21:09.393Z,10.75
2022-12-22T20:23:40.332Z,10.48
2022-12-22T20:26:16.682Z,9.88
2022-12-22T20:28:46.011Z,10.02
2022-12-22T20:31:17.348Z,9.63
2022-12-22T20:33:48.098Z,8.95
2022-12-22T20:36:25.727Z,9.52
2022-12-22T20:38:56.912Z,9.55
2022-12-22T20:41:26.992Z,9.70
2022-12-22T20:43:56.287Z,9.80
2022-12-22T20:46:28.742Z,10.32
2022-12-22T20:49:01.375Z,9.90
2022-12-22T20:51:33.702Z,9.57
2022-12-22T20:54:03.664Z,9.45
2022-12-22T20:56:39.180Z,9.02
2022-12-22T20:59:21.973Z,9.20
2022-12-22T21:01:53.585Z,8.65
2022-12-22T21:04:29.307Z,8.75
2022-12-22T21:06:59.148Z,8.18
2022-12-22T21:09:28.503Z,8.43
2022-12-22T21:11:57.832Z,9.07
2022-12-22T21:14:27.135Z,8.52
2022-12-22T21:16:59.512Z,8.20
2022-12-22T21:19:29.318Z,8.68
2022-12-22T21:21:58.417Z,7.95
2022-12-22T21:24:27.666Z,7.63
2022-12-22T21:26:57.581Z,7.88
2022-12-22T21:29:28.413Z,8.13
2022-12-22T21:31:57.764Z,8.00
2022-12-22T21:34:26.986Z,7.82
2022-12-22T21:37:04.881Z,7.40
2022-12-22T21:39:45.872Z,7.32
2022-12-22T21:42:24.349Z,7.60
2022-12-22T21:44:54.377Z,7.53
2022-12-22T21:47:23.604Z,7.90
2022-12-22T21:49:53.192Z,7.43
2022-12-22T21:52:22.481Z,7.90
2022-12-22T21:54:52.433Z,8.05
2022-12-22T21:57:21.789Z,7.85
2022-12-22T21:59:51.307Z,9.07
2022-12-22T22:02:20.689Z,8.25
2022-12-22T22:04:54.529Z,8.05
2022-12-22T22:07:25.229Z,9.02
2022-12-22T22:09:55.405Z,8.82
2022-12-22T22:12:33.696Z,8.47
2022-12-22T22:15:03.305Z,8.50
2022-12-22T22:17:32.388Z,8.43
2022-12-22T22:20:02.536Z,7.97
2022-12-22T22:22:32.130Z,5.43
2022-12-22T22:25:01.532Z,4.38
2022-12-22T22:27:30.777Z,3.83
2022-12-22T22:29:59.953Z,3.67
2022-12-22T22:32:29.112Z,3.47
2022-12-22T22:34:59.203Z,3.10
2022-12-22T22:37:28.495Z,3.45
2022-12-22T22:39:58.601Z,3.25
2022-12-22T22:42:28.016Z,2.58
2022-12-22T22:44:58.285Z,2.70
2022-12-22T22:47:27.546Z,2.67
2022-12-22T22:49:56.894Z,3.10
2022-12-22T22:52:26.144Z,2.50
2022-12-22T22:54:55.509Z,2.85
2022-12-22T22:57:24.887Z,3.40
2022-12-22T22:59:54.146Z,2.63
2022-12-22T23:02:23.622Z,3.10
2022-12-22T23:04:53.395Z,3.50
2022-12-22T23:07:22.557Z,3.35
2022-12-22T23:09:52.424Z,3.40
2022-12-22T23:12:21.778Z,4.25
2022-12-22T23:14:51.136Z,4.13
2022-12-22T23:17:20.393Z,4.97
2022-12-22T23:19:50.267Z,4.68
2022-12-22T23:22:19.520Z,5.50
2022-12-22T23:24:48.888Z,5.05
2022-12-22T23:27:18.641Z,5.43
2022-12-22T23:29:47.952Z,4.93
2022-12-22T23:32:17.432Z,5.18
2022-12-22T23:34:46.886Z,4.30
2022-12-22T23:37:19.742Z,5.15
2022-12-22T23:39:49.170Z,4.20
2022-12-22T23:42:18.734Z,4.65
2022-12-22T23:44:49.282Z,4.50
2022-12-22T23:47:18.494Z,5.20
2022-12-22T23:49:47.720Z,5.07
2022-12-22T23:52:17.069Z,4.67
2022-12-22T23:54:46.068Z,4.93
2022-12-22T23:57:15.419Z,5.35
2022-12-22T23:59:44.654Z,5.32
